Search flights

El Prat Airport, Barcelona (LEBL)

Airport Weather & NOTAM's

METAR for:LEBL (Barcelona/Prat Arpt, CT, ES)
Text:LEBL 210330Z 34004KT 9999 FEW013 25/22 Q1005 NOSIG
Conditions at:0330 UTC 21 Jul 2024
Temperature: 25.0°C ( 77°F)
Dewpoint: 22.0°C ( 72°F) [RH = 83%]
Pressure (altimeter):29.68 inches Hg (1005.0 mb)
Winds:from the NNW (340 degrees) at 5 MPH (4 knots; 2.1 m/s)
Visibility:6 or more sm (10+ km)
Ceiling:at least 12,000 feet AGL
Clouds:few clouds at 1300 feet AGL
TAF for:LEBL (Barcelona/Prat Arpt, CT, ES) issued at 2300 UTC 20 Jul 2024
Text:TAF LEBL 202300Z 2100/2124 VRB03KT 9999 FEW015 TX29/2112Z TN24/2106Z
Forecast period:0000 to 0800 UTC 21 July 2024
Forecast type:FROM: standard forecast or significant change
Winds:variable direction winds at 3 MPH (3 knots; 1.5 m/s)
Visibility:6 or more sm (10+ km)
Ceiling:at least 12,000 feet AGL
Clouds:few clouds at 1500 feet AGL
Temperature:MAX 29°C at 1200 UTC 21 Jul 2024
Temperature:MIN 24°C at 0600 UTC 21 Jul 2024
Text:PROB40
Forecast period:0000 to 1200 UTC 21 July 2024
Forecast type:TEMPORARY: The following changes expected for less than half the time period
Winds:from the E (90 degrees) at 17 MPH (15 knots; 7.7 m/s) gusting to 29 MPH (25 knots; 12.9 m/s)
Ceiling:1200 feet AGL
Clouds:broken clouds at 1200 feet AGL, few clouds at 3000 feet AGL
Weather:SHRA (rain showers)
Text:TEMPO 2100/2112 09015G25KT SHRA BKN012 FEW030TCU
Forecast period:0600 to 1000 UTC 21 July 2024
Forecast type:TEMPORARY: The following changes expected for less than half the time period
Ceiling:at least 12,000 feet AGL
Clouds:few clouds at 4000 feet AGL
Weather:TS (thunderstorm)
Text:PROB30
Forecast period:0800 to 1800 UTC 21 July 2024
Forecast type:BECOMING: Conditions expected to become as follows by 1000 UTC 21 July 2024
Winds:from the SE (140 degrees) at 14 MPH (12 knots; 6.2 m/s)
Visibility:6 or more sm (10+ km)
Ceiling:at least 12,000 feet AGL
Clouds:few clouds at 1500 feet AGL
Text:TEMPO 2106/2110 TS FEW040CB
Forecast period:1800 UTC 21 July 2024 to 0000 UTC 22 July 2024
Forecast type:BECOMING: Conditions expected to become as follows by 2100 UTC 21 July 2024
Winds:variable direction winds at 3 MPH (3 knots; 1.5 m/s)
Visibility:6 or more sm (10+ km)
Ceiling:at least 12,000 feet AGL
Clouds:few clouds at 1500 feet AGL

Live Departures & Arrivals

There are currently no arrivals or departures for this airport.

Departures History (last 12 months)

Flight No. Dest. Aircraft Date
BXS1767 LEGE Curtiss C4... 2024-07-19 14:39:19
BXS1767 LERS Curtiss C4... 2024-07-12 14:33:10
BXS1702 LGAV PMDG 737-9... 2024-07-09 05:21:18
BXS1702 LEZL Airbus A32... 2024-07-03 05:24:58
BXS1702 EGPH PMDG 737-7... 2024-06-16 05:28:35
BXS1702 LPPT PMDG 737-9... 2024-06-13 14:08:20
BXS1702 LIRN PMDG 737-8... 2024-06-08 05:25:15
BXS1767 LERS Douglas DC... 2024-05-11 07:29:46
BXS1702 ESSA PMDG 737-8... 2024-04-29 13:52:15
BXS1702 EGSS PMDG 737-8... 2024-04-25 08:42:52
BXS1702 LGAV PMDG 737-8... 2024-04-19 14:56:56
BXS1009 LPPT Airbus A32... 2024-04-14 10:08:48
BXS1767 LERS TBM 930 As... 2024-03-27 11:28:27
BXS1702 LIPZ PMDG 737-8... 2024-03-25 08:33:25
BXS1009 GCXO PMDG 737-6... 2024-03-10 07:41:04
BXS1702 LEMG PMDG 737-8... 2024-03-08 06:09:24
BXS1009 LEMD Airbus A31... 2024-03-06 20:01:34
BXS1009 LEBB Airbus A32... 2024-03-05 18:40:10
BXS1702 LGAV PMDG 737-8... 2024-03-04 16:05:25
BXS1702 GCFV PMDG 737-7... 2024-02-22 16:14:09
BXS1702 LGTS PMDG 737-7... 2024-02-09 15:11:57
BXS1702 LGAV PMDG 737-7... 2024-02-06 15:46:00
BXS1836 LEZL PMDG 737-8... 2024-01-24 19:18:20
BXS1702 KMIA Boeing 787... 2024-01-07 09:42:51
BXS1009 LELN Airbus A32... 2023-12-18 19:14:56
BXS2148 LOWI PMDG 737-8... 2023-12-11 10:39:28
BXS1702 LEMH DA 62 Kenm... 2023-11-25 06:39:36
BXS1702 EGSS PMDG 737-7... 2023-11-19 15:13:55
BXS2148 LEVC PMDG 737-8... 2023-11-18 09:42:28
BXS1702 LFRS PMDG 737-7... 2023-11-15 15:36:52
BXS1767 LSZH TBM 930 Ke... 2023-11-01 14:34:29
BXS1702 LPPT PMDG 737-7... 2023-10-31 10:26:49
BXS1702 LIRF PMDG 737-7... 2023-10-19 05:28:12
{}BXS2156 LEMG FenixA320_... 2023-10-07 15:39:29
BXS2421 LEMG PMDG 737-8... 2023-10-07 16:14:12
BXS1010 LEMG Airbus A32... 2023-10-07 15:43:07
BXS1005 LEMG PMDG 737-8... 2023-10-07 15:45:26
BXS1010 LEMG PMDG 737-7... 2023-10-04 16:09:45
BXS1702 EGSS PMDG 737-7... 2023-09-24 05:19:43
BXS1702 GCFV PMDG 737-7... 2023-09-19 15:14:33
BXS1767 LEVC TBM 930 Ke... 2023-09-15 12:48:37
BXS1702 EDDB PMDG 737-7... 2023-09-15 14:38:40
{}N714SB LPPT PMDG 737-7... 2023-09-14 06:35:15
BXS1702 LEGR PMDG 737-7... 2023-08-18 05:14:56
BXS2149 LEMG PMDG 737-8... 2023-08-15 07:44:01
BXS1702 EKCH PMDG 737-7... 2023-08-13 14:44:38
BXS2118 LELN Cessna Lon... 2023-08-06 11:17:30
BXS1702 GCTS PMDG 737-7... 2023-07-31 14:12:59

Arrivals History (last 12 months)

Flight No. Origin Aircraft Date
BXS1702 LPMA PMDG 777-3... 2024-07-08 12:32:17
BXS1009 GCXO Airbus A32... 2024-07-08 19:05:52
{}BXS2156 LEPA PMDG 737-7... 2024-07-06 16:46:07
BXS1702 LTBA PMDG 737-9... 2024-07-02 18:03:03
BXS1702 LPPR PMDG 737-7... 2024-06-15 18:22:41
BXS1767 LEHC TBM 930 As... 2024-06-13 17:20:11
BXS1702 LEHC PMDG DC-6A... 2024-06-13 17:14:27
BXS1702 LOWW PMDG 737-9... 2024-06-12 17:04:23
BXS1702 LEGR PMDG 737-8... 2024-06-07 06:53:07
BXS1767 LEGE Douglas DC... 2024-05-16 09:56:33
BXS1702 LPMA PMDG 737-8... 2024-05-06 08:21:43
BXS1702 LPMA PMDG 737-8... 2024-04-29 08:23:04
BXS1702 LEMG PMDG 737-9... 2024-04-24 16:45:12
BXS1702 LEMG PMDG 737-7... 2024-04-19 06:03:29
BXS1702 LFPG PMDG 737-8... 2024-04-17 07:10:11
BXS1009 EGPH Airbus A32... 2024-04-13 19:51:48
BXS1767 LEGE Beechcraft... 2024-04-06 15:05:42
BXS1702 LPFR PMDG 737-9... 2024-03-24 17:52:52
BXS1702 LEAS PMDG 737-8... 2024-03-07 17:07:22
BXS1702 LEGR PMDG 737-8... 2024-03-04 09:40:51
BXS1702 LEGR PMDG 737-7... 2024-03-01 12:04:42
BXS1009 LEBB Airbus A32... 2024-03-01 19:09:02
BXS1702 LEMG PMDG 737-7... 2024-02-22 08:02:54
BXS1767 LEGE Cessna Gra... 2024-02-11 11:36:10
BXS1702 LEAM PMDG 737-7... 2024-02-09 07:58:54
BXS1702 LPFR PMDG 737-7... 2024-02-06 11:45:33
BXS1009 LEPP Airbus A32... 2023-12-17 18:29:08
BXS1702 LEGR PMDG 737-7... 2023-12-06 07:59:19
BXS1702 LEGR PMDG 737-7... 2023-11-28 08:16:20
BXS1767 LEGE TBM 930 As... 2023-11-25 15:54:04
BXS1702 LEVX PMDG 737-7... 2023-11-24 08:07:31
BXS2148 LFPG PMDG 737-8... 2023-11-18 00:10:18
BXS1702 LEMG PMDG 737-7... 2023-11-18 16:21:18
BXS1702 LEGR PMDG 737-7... 2023-11-15 08:09:43
BXS1702 EGSS Airbus A32... 2023-10-30 18:06:10
BXS1702 LEMG Cessna CJ4... 2023-10-18 16:59:20
BXS1009 LGKF Airbus A32... 2023-10-07 14:25:43
BXS1702 LEGR PMDG 737-7... 2023-10-04 06:45:40
BXS1010 LGKF PMDG 737-7... 2023-10-02 18:03:37
BXS1005 LGKF PMDG 737-8... 2023-10-02 18:08:57
BXS1702 LIML PMDG 737-7... 2023-09-19 09:01:24
BXS1702 LPPT PMDG 737-7... 2023-09-15 06:55:03
BXS1702 LIRF PMDG 737-7... 2023-09-13 16:29:11
BXS1767 LEVC Boeing 747... 2023-08-19 15:31:39
BXS1702 EGLL PMDG 737-7... 2023-08-17 09:11:23
BXS1702 LEGR FenixA320... 2023-08-13 06:58:34
BXS2118 GCLA a320-liver... 2023-08-05 23:03:10
BXS1702 LIRN PMDG 737-7... 2023-07-31 06:53:14

Runway Information (Airport elevation: 9ft)

Runway 02 Length 8,273ft Width 147ft Elevation 9ft Surface Asphalt Heading 19
Runway 06L Length 11,433ft Width 196ft Elevation 9ft Surface Asphalt Heading 66
Runway 06R Length 8,694ft Width 194ft Elevation 9ft Surface Asphalt Heading 66
Runway 20 Length 8,273ft Width 147ft Elevation 9ft Surface Asphalt Heading 199
Runway 24L Length 8,694ft Width 194ft Elevation 9ft Surface Asphalt Heading 246
Runway 24R Length 11,433ft Width 196ft Elevation 9ft Surface Asphalt Heading 246

Airport Frequencies

Type APP/DEP Frequency 119.105 Mhz
Type APP/DEP Frequency 121.155 Mhz
Type APP/DEP Frequency 124.705 Mhz
Type APP/DEP Frequency 125.250 Mhz
Type APP/DEP Frequency 126.505 Mhz
Type APP/DEP Frequency 127.700 Mhz
Type APP/DEP Frequency 131.125 Mhz
Type APP/DEP Frequency 135.280 Mhz
Type ATIS Frequency 118.655 Mhz
Type ATIS Frequency 121.980 Mhz
Type Clearance Frequency 121.805 Mhz
Type D Frequency 118.105 Mhz
Type Ground Frequency 121.655 Mhz
Type Ground Frequency 121.705 Mhz
Type Ground Frequency 122.230 Mhz
Type Tower Frequency 118.105 Mhz
Type Tower Frequency 118.330 Mhz
Type Tower Frequency 122.100 Mhz
Type Tower Frequency 122.830 Mhz
Type APP/DEP Frequency 133.980 Mhz

Airport Navaids

Type VOR-DME Ident BCN Frequency 116700 Khz
Type VOR-DME Ident PRA Frequency 114300 Khz
Type VOR-DME Ident SLL Frequency 112000 Khz
Type NDB Ident VNV Frequency 380 Khz